Time;durP1;ratioP1;P1;durP2;ratioP2;P2;SDS_P1;SDS_P2;PMS_P1;PMS_P2;Temp;Humidity;BMP_temperature;BMP_pressure;BME280_temperature;BME280_humidity;BME280_pressure;Samples;Min_cycle;Max_cycle;Signal;HPM_P1;HPM_P2
2023/10/25 00:01:39;;;;;;;37.78;24.23;;;;;;;;;;5094894;28;20030;-74
2023/10/25 00:04:05;;;;;;;36.97;25.35;;;;;;;;;;5096820;28;20031;-73
2023/10/25 00:06:31;;;;;;;39.55;24.55;;;;;;;;;;5095609;28;20069;-73
2023/10/25 00:08:57;;;;;;;43.60;26.42;;;;;;;;;;5092010;28;20053;-72
2023/10/25 00:11:23;;;;;;;40.25;26.15;;;;;;;;;;5091802;28;20036;-73
2023/10/25 00:13:49;;;;;;;45.22;26.13;;;;;;;;;;5092094;28;20020;-73
2023/10/25 00:16:15;;;;;;;39.17;26.58;;;;;;;;;;5096897;28;20035;-73
2023/10/25 00:18:42;;;;;;;44.08;26.67;;;;;;;;;;5097510;28;20411;-74
2023/10/25 00:21:07;;;;;;;40.50;27.00;;;;;;;;;;5082059;28;20107;-73
2023/10/25 00:23:33;;;;;;;44.70;27.60;;;;;;;;;;5097654;28;20052;-73
2023/10/25 00:25:59;;;;;;;42.00;28.00;;;;;;;;;;5092352;28;20016;-72
2023/10/25 00:28:25;;;;;;;44.10;29.27;;;;;;;;;;5092118;28;20085;-73
2023/10/25 00:30:51;;;;;;;47.08;30.45;;;;;;;;;;5092006;28;20035;-73
2023/10/25 00:33:17;;;;;;;45.95;29.40;;;;;;;;;;5091834;28;20457;-74
2023/10/25 00:35:43;;;;;;;42.92;29.00;;;;;;;;;;5092037;28;20032;-74
2023/10/25 00:38:09;;;;;;;48.03;29.17;;;;;;;;;;5091697;28;20032;-74
2023/10/25 00:40:37;;;;;;;48.42;30.23;;;;;;;;;;5091676;28;20017;-74
2023/10/25 00:43:14;;;;;;;47.22;30.60;;;;;;;;;;5091478;28;20443;-73
2023/10/25 00:45:43;;;;;;;42.08;28.52;;;;;;;;;;5091771;28;20103;-73
2023/10/25 00:48:09;;;;;;;50.15;29.95;;;;;;;;;;5091940;28;20032;-73
2023/10/25 00:50:35;;;;;;;46.47;29.90;;;;;;;;;;5091826;28;20385;-74
2023/10/25 00:53:01;;;;;;;46.58;30.65;;;;;;;;;;5101206;28;20472;-73
2023/10/25 00:55:27;;;;;;;48.70;32.10;;;;;;;;;;5105576;28;20056;-73
2023/10/25 00:57:53;;;;;;;48.08;31.10;;;;;;;;;;5099823;28;20035;-72
2023/10/25 01:00:19;;;;;;;51.78;32.42;;;;;;;;;;5091206;28;20020;-74
2023/10/25 01:02:45;;;;;;;51.50;30.95;;;;;;;;;;5091529;28;20024;-74
2023/10/25 01:05:11;;;;;;;48.55;32.97;;;;;;;;;;5091606;28;20395;-73
2023/10/25 01:07:37;;;;;;;52.83;32.40;;;;;;;;;;5091586;28;20479;-73
2023/10/25 01:10:03;;;;;;;51.33;31.92;;;;;;;;;;5091732;28;20032;-74
2023/10/25 01:12:29;;;;;;;52.75;33.25;;;;;;;;;;5091393;28;20027;-73
2023/10/25 01:14:55;;;;;;;53.38;33.88;;;;;;;;;;5095513;28;20103;-73
2023/10/25 01:17:21;;;;;;;54.15;33.03;;;;;;;;;;5095077;28;20024;-73
2023/10/25 01:19:47;;;;;;;55.42;33.85;;;;;;;;;;5094980;28;20036;-73
2023/10/25 01:22:13;;;;;;;52.67;32.17;;;;;;;;;;5094728;28;20103;-72
2023/10/25 01:24:39;;;;;;;55.75;34.58;;;;;;;;;;5095152;28;20020;-73
2023/10/25 01:27:05;;;;;;;53.00;32.85;;;;;;;;;;5095584;28;20387;-73
2023/10/25 01:29:32;;;;;;;55.67;34.00;;;;;;;;;;5095372;28;20028;-74
2023/10/25 01:31:58;;;;;;;48.50;33.00;;;;;;;;;;5095172;28;20499;-75
2023/10/25 01:34:23;;;;;;;59.55;34.33;;;;;;;;;;5095350;28;20111;-74
2023/10/25 01:36:49;;;;;;;56.85;34.30;;;;;;;;;;5095260;28;20089;-73
2023/10/25 01:39:15;;;;;;;58.53;33.63;;;;;;;;;;5094152;28;20028;-72
2023/10/25 01:41:41;;;;;;;57.20;34.70;;;;;;;;;;5095365;28;20024;-73
2023/10/25 01:44:07;;;;;;;60.40;35.05;;;;;;;;;;5095086;28;20036;-73
2023/10/25 01:46:33;;;;;;;61.80;34.78;;;;;;;;;;5095737;28;20417;-74
2023/10/25 01:48:59;;;;;;;60.42;34.17;;;;;;;;;;5097453;28;20030;-73
2023/10/25 01:51:25;;;;;;;60.55;35.42;;;;;;;;;;5096678;28;20107;-74
2023/10/25 01:53:51;;;;;;;63.13;35.47;;;;;;;;;;5118023;28;20035;-73
2023/10/25 01:56:17;;;;;;;54.97;34.33;;;;;;;;;;5115001;28;20024;-72
2023/10/25 01:58:43;;;;;;;59.58;35.10;;;;;;;;;;5116082;28;20035;-73
2023/10/25 02:01:09;;;;;;;56.28;33.35;;;;;;;;;;5117979;28;20020;-72
2023/10/25 02:03:35;;;;;;;58.33;33.95;;;;;;;;;;5119661;28;20031;-73
2023/10/25 02:06:10;;;;;;;54.13;32.45;;;;;;;;;;5118103;28;20020;-74
2023/10/25 02:08:36;;;;;;;64.55;35.70;;;;;;;;;;5119577;28;20020;-72
2023/10/25 02:11:02;;;;;;;59.10;33.22;;;;;;;;;;5118244;28;20028;-73
2023/10/25 02:13:28;;;;;;;57.20;33.97;;;;;;;;;;5118633;28;20020;-73
2023/10/25 02:15:54;;;;;;;60.88;34.30;;;;;;;;;;5117222;28;20039;-73
2023/10/25 02:18:20;;;;;;;61.55;36.03;;;;;;;;;;5096890;28;20274;-73
2023/10/25 02:20:46;;;;;;;62.70;35.17;;;;;;;;;;5093842;28;20017;-73
2023/10/25 02:23:12;;;;;;;58.97;35.35;;;;;;;;;;5093819;28;20016;-73
2023/10/25 02:25:38;;;;;;;65.63;36.67;;;;;;;;;;5094845;28;20562;-73
2023/10/25 02:28:04;;;;;;;58.30;33.95;;;;;;;;;;5095202;28;20028;-73
2023/10/25 02:30:30;;;;;;;67.20;37.17;;;;;;;;;;5095507;28;20032;-73
2023/10/25 02:32:56;;;;;;;60.25;34.05;;;;;;;;;;5093956;28;20113;-73
2023/10/25 02:35:22;;;;;;;60.70;33.90;;;;;;;;;;5093908;28;20035;-73
2023/10/25 02:37:48;;;;;;;62.88;36.00;;;;;;;;;;5095799;28;20035;-73
2023/10/25 02:40:14;;;;;;;62.03;35.35;;;;;;;;;;5098288;28;20503;-74
2023/10/25 02:42:44;;;;;;;60.88;35.88;;;;;;;;;;5098408;28;20028;-73
2023/10/25 02:45:10;;;;;;;66.78;34.95;;;;;;;;;;5100496;28;20024;-72
2023/10/25 02:47:36;;;;;;;60.13;34.30;;;;;;;;;;5093478;28;20043;-72
2023/10/25 02:50:02;;;;;;;83.65;42.22;;;;;;;;;;5094126;28;20027;-73
2023/10/25 02:52:28;;;;;;;78.45;42.35;;;;;;;;;;5095041;28;20020;-73
2023/10/25 02:54:55;;;;;;;63.92;35.53;;;;;;;;;;5094912;28;20099;-72
2023/10/25 02:57:21;;;;;;;168.00;76.03;;;;;;;;;;5092295;28;20602;-73
2023/10/25 02:59:47;;;;;;;68.85;38.65;;;;;;;;;;5093303;28;20031;-76
2023/10/25 03:02:13;;;;;;;58.50;35.25;;;;;;;;;;5093007;28;20020;-73
2023/10/25 03:04:39;;;;;;;60.17;34.17;;;;;;;;;;5093323;28;20047;-72
2023/10/25 03:07:05;;;;;;;69.05;36.95;;;;;;;;;;5093255;28;20317;-73
2023/10/25 03:09:31;;;;;;;59.40;35.28;;;;;;;;;;5093101;28;20104;-73
2023/10/25 03:11:58;;;;;;;62.08;34.88;;;;;;;;;;5092972;28;20035;-71
2023/10/25 03:14:24;;;;;;;63.17;35.83;;;;;;;;;;5093164;28;20099;-77
2023/10/25 03:16:51;;;;;;;59.25;35.67;;;;;;;;;;5092620;28;20081;-72
2023/10/25 03:19:18;;;;;;;66.03;36.03;;;;;;;;;;5092690;28;20479;-73
2023/10/25 03:21:44;;;;;;;60.70;33.70;;;;;;;;;;5092361;28;20024;-74
2023/10/25 03:24:10;;;;;;;64.82;35.85;;;;;;;;;;5094602;28;20096;-74
2023/10/25 03:26:36;;;;;;;59.75;34.38;;;;;;;;;;5092738;28;20055;-72
2023/10/25 03:29:02;;;;;;;67.40;36.47;;;;;;;;;;5093085;28;20035;-73
2023/10/25 03:31:28;;;;;;;62.33;34.75;;;;;;;;;;5095671;28;20020;-73
2023/10/25 03:33:54;;;;;;;54.50;32.67;;;;;;;;;;5093695;28;20395;-72
2023/10/25 03:36:20;;;;;;;60.85;34.13;;;;;;;;;;5091991;28;20035;-72
2023/10/25 03:38:46;;;;;;;68.60;36.80;;;;;;;;;;5092464;28;20024;-72
2023/10/25 03:41:12;;;;;;;64.20;35.63;;;;;;;;;;5092556;28;20031;-74
2023/10/25 03:43:39;;;;;;;62.00;35.95;;;;;;;;;;5092597;28;20023;-73
2023/10/25 03:46:08;;;;;;;70.25;36.13;;;;;;;;;;5092715;28;20024;-74
2023/10/25 03:48:35;;;;;;;63.45;34.53;;;;;;;;;;5092511;28;20028;-72
2023/10/25 03:51:05;;;;;;;71.10;37.22;;;;;;;;;;5092393;28;20098;-73
2023/10/25 03:53:31;;;;;;;60.75;35.42;;;;;;;;;;5092969;28;20020;-73
2023/10/25 03:55:57;;;;;;;63.13;34.80;;;;;;;;;;5094187;28;20020;-72
2023/10/25 03:58:24;;;;;;;59.15;33.83;;;;;;;;;;5093352;28;20024;-74
2023/10/25 04:00:57;;;;;;;59.33;34.47;;;;;;;;;;5090487;28;20161;-73
2023/10/25 04:03:23;;;;;;;66.43;34.38;;;;;;;;;;5091956;28;20020;-74
2023/10/25 04:05:49;;;;;;;64.65;34.22;;;;;;;;;;5092798;28;20020;-73
2023/10/25 04:08:15;;;;;;;62.00;34.05;;;;;;;;;;5094878;28;20027;-73
2023/10/25 04:10:41;;;;;;;68.18;34.63;;;;;;;;;;5093452;28;20567;-73
2023/10/25 04:13:07;;;;;;;63.45;34.67;;;;;;;;;;5091873;28;20028;-73
2023/10/25 04:15:35;;;;;;;61.92;33.50;;;;;;;;;;5096453;28;20360;-73
2023/10/25 04:18:02;;;;;;;55.63;30.77;;;;;;;;;;5094598;28;20429;-73
2023/10/25 04:20:34;;;;;;;61.38;32.35;;;;;;;;;;5076277;28;20043;-74
2023/10/25 04:23:00;;;;;;;64.65;33.85;;;;;;;;;;5095092;28;20059;-73
2023/10/25 04:25:26;;;;;;;62.00;32.97;;;;;;;;;;5092692;28;20024;-74
2023/10/25 04:27:53;;;;;;;56.20;31.40;;;;;;;;;;5091755;28;20396;-74
2023/10/25 04:30:19;;;;;;;56.33;30.88;;;;;;;;;;5091406;28;20031;-74
2023/10/25 04:32:46;;;;;;;55.00;29.30;;;;;;;;;;5093359;28;20024;-74
2023/10/25 04:35:12;;;;;;;56.63;30.00;;;;;;;;;;5093947;28;20128;-73
2023/10/25 04:37:38;;;;;;;61.97;31.73;;;;;;;;;;5095410;28;20027;-73
2023/10/25 04:40:05;;;;;;;60.70;30.88;;;;;;;;;;5090478;28;20024;-75
2023/10/25 04:42:31;;;;;;;62.95;31.92;;;;;;;;;;5091379;28;20059;-73
2023/10/25 04:44:57;;;;;;;55.10;30.85;;;;;;;;;;5091370;28;20059;-72
2023/10/25 04:47:23;;;;;;;63.63;30.58;;;;;;;;;;5092658;28;20031;-73
2023/10/25 04:49:49;;;;;;;53.20;30.05;;;;;;;;;;5104086;28;20023;-74
2023/10/25 04:52:16;;;;;;;50.63;29.23;;;;;;;;;;5095338;28;20051;-74
2023/10/25 04:54:43;;;;;;;63.38;31.38;;;;;;;;;;5095497;28;20024;-75
2023/10/25 04:57:09;;;;;;;58.20;30.48;;;;;;;;;;5095590;28;20043;-73
2023/10/25 04:59:35;;;;;;;54.92;29.50;;;;;;;;;;5095547;28;20024;-74
2023/10/25 05:02:01;;;;;;;58.42;31.15;;;;;;;;;;5095309;28;20032;-74
2023/10/25 05:04:27;;;;;;;62.65;30.20;;;;;;;;;;5097119;28;20031;-75
2023/10/25 05:06:53;;;;;;;49.30;27.67;;;;;;;;;;5096477;28;20028;-74
2023/10/25 05:09:19;;;;;;;48.78;27.55;;;;;;;;;;5096076;28;20112;-72
2023/10/25 05:11:56;;;;;;;57.08;28.65;;;;;;;;;;5095777;28;20031;-73
2023/10/25 05:14:23;;;;;;;52.45;28.35;;;;;;;;;;5095549;28;20077;-73
2023/10/25 05:16:49;;;;;;;49.58;26.65;;;;;;;;;;5096579;28;20020;-75
2023/10/25 05:19:15;;;;;;;49.13;27.40;;;;;;;;;;5096831;28;20016;-73
2023/10/25 05:21:46;;;;;;;53.22;28.92;;;;;;;;;;5098874;28;20047;-73
2023/10/25 05:24:12;;;;;;;48.22;26.27;;;;;;;;;;5095255;28;20024;-74
2023/10/25 05:26:38;;;;;;;44.88;27.40;;;;;;;;;;5095188;28;20017;-73
2023/10/25 05:29:04;;;;;;;46.70;27.05;;;;;;;;;;5098115;28;20024;-74
2023/10/25 05:31:32;;;;;;;50.42;27.77;;;;;;;;;;5097414;28;20081;-73
2023/10/25 05:33:58;;;;;;;47.33;25.98;;;;;;;;;;5096043;28;20062;-73
2023/10/25 05:36:25;;;;;;;51.35;27.30;;;;;;;;;;5096634;28;20027;-73
2023/10/25 05:38:51;;;;;;;48.50;27.83;;;;;;;;;;5095098;28;20024;-72
2023/10/25 05:41:20;;;;;;;44.60;25.98;;;;;;;;;;5096146;28;20031;-74
2023/10/25 05:43:48;;;;;;;47.10;26.30;;;;;;;;;;5095268;28;20028;-73
2023/10/25 05:46:14;;;;;;;44.10;24.67;;;;;;;;;;5097215;28;20032;-72
2023/10/25 05:48:41;;;;;;;46.42;26.17;;;;;;;;;;5096588;28;20024;-72
2023/10/25 05:51:07;;;;;;;46.55;27.25;;;;;;;;;;5094649;28;20093;-74
2023/10/25 05:53:33;;;;;;;54.40;29.23;;;;;;;;;;5097127;28;20020;-73
2023/10/25 05:56:00;;;;;;;50.47;27.75;;;;;;;;;;5101798;28;20028;-74
2023/10/25 05:58:26;;;;;;;51.05;27.65;;;;;;;;;;5093447;28;20032;-72
2023/10/25 06:00:55;;;;;;;50.22;28.30;;;;;;;;;;5093032;28;20062;-73
2023/10/25 06:03:22;;;;;;;50.97;29.20;;;;;;;;;;5093830;28;20024;-74
2023/10/25 06:05:52;;;;;;;54.45;30.73;;;;;;;;;;5094393;28;20012;-73
2023/10/25 06:08:18;;;;;;;48.75;28.08;;;;;;;;;;5093171;28;20021;-74
2023/10/25 06:10:44;;;;;;;55.38;28.95;;;;;;;;;;5094237;28;20400;-73
2023/10/25 06:13:10;;;;;;;54.10;30.60;;;;;;;;;;5093918;28;20053;-73
2023/10/25 06:15:37;;;;;;;61.58;29.88;;;;;;;;;;5094307;28;20498;-74
2023/10/25 06:18:07;;;;;;;55.70;29.40;;;;;;;;;;5093839;28;20024;-72
2023/10/25 06:20:33;;;;;;;53.90;30.23;;;;;;;;;;5093491;28;20028;-75
2023/10/25 06:22:59;;;;;;;52.03;28.33;;;;;;;;;;5094310;28;20031;-74
2023/10/25 06:25:27;;;;;;;51.28;28.42;;;;;;;;;;5094151;28;20020;-73
2023/10/25 06:27:53;;;;;;;53.63;28.60;;;;;;;;;;5094842;28;20020;-74
2023/10/25 06:30:19;;;;;;;50.35;28.58;;;;;;;;;;5095099;28;20053;-75
2023/10/25 06:32:45;;;;;;;55.60;29.00;;;;;;;;;;5095523;28;20028;-74
2023/10/25 06:35:11;;;;;;;52.75;29.38;;;;;;;;;;5108179;28;20554;-73
2023/10/25 06:37:37;;;;;;;55.00;30.10;;;;;;;;;;5104682;28;20028;-75
2023/10/25 06:40:04;;;;;;;53.17;29.63;;;;;;;;;;5100691;28;20488;-74
2023/10/25 06:42:30;;;;;;;51.08;29.08;;;;;;;;;;5093330;28;20103;-73
2023/10/25 06:44:56;;;;;;;52.42;28.02;;;;;;;;;;5091876;28;20364;-74
2023/10/25 06:47:22;;;;;;;58.00;29.75;;;;;;;;;;5095296;28;20031;-73
2023/10/25 06:49:48;;;;;;;62.08;29.88;;;;;;;;;;5093727;28;20020;-73
2023/10/25 06:52:14;;;;;;;51.58;28.42;;;;;;;;;;5094287;28;20065;-74
2023/10/25 06:54:40;;;;;;;52.15;27.77;;;;;;;;;;5093800;28;20024;-73
2023/10/25 06:57:06;;;;;;;51.45;29.35;;;;;;;;;;5093586;28;20104;-77
2023/10/25 06:59:33;;;;;;;48.70;27.38;;;;;;;;;;5094388;28;20061;-74
2023/10/25 07:02:11;;;;;;;50.83;29.35;;;;;;;;;;5093889;28;20497;-73
2023/10/25 07:04:37;;;;;;;54.47;29.02;;;;;;;;;;5093360;28;20048;-73
2023/10/25 07:07:05;;;;;;;49.78;29.17;;;;;;;;;;5093226;28;20028;-73
2023/10/25 07:09:31;;;;;;;52.28;29.63;;;;;;;;;;5093322;28;20028;-73
2023/10/25 07:11:57;;;;;;;58.28;29.30;;;;;;;;;;5092730;28;20065;-73
2023/10/25 07:14:23;;;;;;;56.00;30.45;;;;;;;;;;5092880;28;20395;-73
2023/10/25 07:16:49;;;;;;;53.00;30.23;;;;;;;;;;5092974;28;20032;-73
2023/10/25 07:19:15;;;;;;;185.73;72.45;;;;;;;;;;5093193;28;20121;-74
2023/10/25 07:21:41;;;;;;;133.60;61.05;;;;;;;;;;5094072;28;20024;-79
2023/10/25 07:24:07;;;;;;;115.38;51.72;;;;;;;;;;5093522;28;20360;-74
2023/10/25 07:26:33;;;;;;;59.50;30.30;;;;;;;;;;5093062;28;20024;-74
2023/10/25 07:28:59;;;;;;;51.55;27.70;;;;;;;;;;5092120;28;20533;-73
2023/10/25 07:31:25;;;;;;;50.67;27.23;;;;;;;;;;5092792;28;20088;-72
2023/10/25 07:33:51;;;;;;;48.78;27.23;;;;;;;;;;5092901;28;20097;-72
2023/10/25 07:36:17;;;;;;;50.25;27.17;;;;;;;;;;5092472;28;20092;-73
2023/10/25 07:38:43;;;;;;;53.22;27.45;;;;;;;;;;5093329;28;20544;-73
2023/10/25 07:41:09;;;;;;;53.63;28.40;;;;;;;;;;5094752;28;20024;-73
2023/10/25 07:43:35;;;;;;;53.58;26.70;;;;;;;;;;5095645;28;20510;-72
2023/10/25 07:46:01;;;;;;;53.50;28.02;;;;;;;;;;5092690;28;20035;-72
2023/10/25 07:48:27;;;;;;;56.88;28.52;;;;;;;;;;5092307;28;20605;-74
2023/10/25 07:50:53;;;;;;;47.08;26.55;;;;;;;;;;5092078;28;20024;-74
2023/10/25 07:53:22;;;;;;;48.80;27.65;;;;;;;;;;5092892;28;20130;-74
2023/10/25 07:55:48;;;;;;;48.08;26.70;;;;;;;;;;5092371;28;20031;-73
2023/10/25 07:58:14;;;;;;;49.92;25.58;;;;;;;;;;5094370;28;20028;-73
2023/10/25 08:00:40;;;;;;;39.35;22.73;;;;;;;;;;5095131;28;20044;-73
2023/10/25 08:03:06;;;;;;;44.47;22.75;;;;;;;;;;5093985;28;20031;-72
2023/10/25 08:05:32;;;;;;;37.53;21.35;;;;;;;;;;5092663;28;20081;-74
2023/10/25 08:07:58;;;;;;;40.80;20.83;;;;;;;;;;5095197;28;20024;-74
2023/10/25 08:10:24;;;;;;;41.42;20.98;;;;;;;;;;5094868;28;20399;-73
2023/10/25 08:12:50;;;;;;;31.40;18.92;;;;;;;;;;5093653;28;20024;-73
2023/10/25 08:15:17;;;;;;;35.67;18.95;;;;;;;;;;5092020;28;20028;-74
2023/10/25 08:17:43;;;;;;;32.58;18.27;;;;;;;;;;5091628;28;20027;-74
2023/10/25 08:20:09;;;;;;;32.42;16.77;;;;;;;;;;5091597;28;20020;-73
2023/10/25 08:22:35;;;;;;;31.58;19.42;;;;;;;;;;5091018;28;20060;-74
2023/10/25 08:25:02;;;;;;;36.80;16.98;;;;;;;;;;5092387;28;20085;-74
2023/10/25 08:27:28;;;;;;;38.60;16.42;;;;;;;;;;5092325;28;20103;-74
2023/10/25 08:29:54;;;;;;;31.33;17.27;;;;;;;;;;5091830;28;20115;-74
2023/10/25 08:32:20;;;;;;;28.17;14.43;;;;;;;;;;5092256;28;20028;-75
2023/10/25 08:34:46;;;;;;;27.25;14.07;;;;;;;;;;5093269;28;20020;-74
2023/10/25 08:37:12;;;;;;;25.33;13.25;;;;;;;;;;5092073;28;20032;-75
2023/10/25 08:39:38;;;;;;;24.27;12.05;;;;;;;;;;5093920;28;20035;-74
2023/10/25 08:42:06;;;;;;;25.42;10.48;;;;;;;;;;5092699;28;20032;-74
2023/10/25 08:44:38;;;;;;;19.38;10.27;;;;;;;;;;5093300;28;20051;-73
2023/10/25 08:47:05;;;;;;;17.83;9.88;;;;;;;;;;5091978;28;20028;-74
2023/10/25 08:49:30;;;;;;;22.83;9.82;;;;;;;;;;5091947;28;20024;-75
2023/10/25 08:51:57;;;;;;;18.02;9.57;;;;;;;;;;5091601;28;20027;-74
2023/10/25 08:54:24;;;;;;;17.85;9.68;;;;;;;;;;5092092;28;20502;-73
2023/10/25 08:56:50;;;;;;;22.85;9.55;;;;;;;;;;5090545;28;20020;-74
2023/10/25 08:59:17;;;;;;;19.67;9.05;;;;;;;;;;5092873;28;20487;-75
2023/10/25 09:01:43;;;;;;;18.98;8.65;;;;;;;;;;5091098;28;20024;-74
2023/10/25 09:04:09;;;;;;;25.60;13.55;;;;;;;;;;5092120;28;20062;-73
2023/10/25 09:06:35;;;;;;;27.67;13.85;;;;;;;;;;5092104;28;20031;-73
2023/10/25 09:09:05;;;;;;;19.30;8.95;;;;;;;;;;5093649;28;20025;-74
2023/10/25 09:11:39;;;;;;;19.63;7.30;;;;;;;;;;5094760;28;20032;-73
2023/10/25 09:14:05;;;;;;;18.45;6.95;;;;;;;;;;5094931;28;20044;-74
2023/10/25 09:16:32;;;;;;;19.35;7.10;;;;;;;;;;5099982;28;20028;-73
2023/10/25 09:18:59;;;;;;;23.15;6.63;;;;;;;;;;5099670;28;20031;-75
2023/10/25 09:21:28;;;;;;;18.33;6.03;;;;;;;;;;5091808;28;20123;-73
2023/10/25 09:23:55;;;;;;;15.15;5.90;;;;;;;;;;5094896;28;20008;-72
2023/10/25 09:26:22;;;;;;;16.48;5.30;;;;;;;;;;5094338;28;20020;-74
2023/10/25 09:28:52;;;;;;;14.23;5.95;;;;;;;;;;5092811;28;20036;-73
2023/10/25 09:31:23;;;;;;;20.52;8.48;;;;;;;;;;5091724;28;20024;-73
2023/10/25 09:33:50;;;;;;;17.27;5.63;;;;;;;;;;5092217;28;20064;-72
2023/10/25 09:36:17;;;;;;;14.75;5.53;;;;;;;;;;5094598;28;20040;-73
2023/10/25 09:38:43;;;;;;;22.75;6.05;;;;;;;;;;5095359;28;20093;-73
2023/10/25 09:41:12;;;;;;;11.07;4.97;;;;;;;;;;5095112;28;20479;-72
2023/10/25 09:43:39;;;;;;;19.02;5.88;;;;;;;;;;5093783;28;20035;-73
2023/10/25 09:46:07;;;;;;;13.50;5.80;;;;;;;;;;5095298;28;20028;-74
2023/10/25 09:48:36;;;;;;;15.88;5.85;;;;;;;;;;5093423;28;20080;-73
2023/10/25 09:51:02;;;;;;;19.20;7.07;;;;;;;;;;5094974;28;20097;-74
2023/10/25 09:53:28;;;;;;;17.05;6.15;;;;;;;;;;5094152;28;20055;-72
2023/10/25 09:55:58;;;;;;;20.30;6.70;;;;;;;;;;5094588;28;20028;-74
2023/10/25 09:58:25;;;;;;;15.70;6.10;;;;;;;;;;5095383;28;20687;-75
2023/10/25 10:00:51;;;;;;;16.38;6.65;;;;;;;;;;5094020;28;20028;-73
2023/10/25 10:03:17;;;;;;;18.30;6.75;;;;;;;;;;5093844;28;20024;-74
2023/10/25 10:05:51;;;;;;;19.33;7.25;;;;;;;;;;5094881;28;20032;-75
2023/10/25 10:08:18;;;;;;;17.45;7.07;;;;;;;;;;5097178;28;20028;-77
2023/10/25 10:10:58;;;;;;;18.50;7.43;;;;;;;;;;5094180;28;20030;-72
2023/10/25 10:13:26;;;;;;;19.05;8.13;;;;;;;;;;5094391;28;20030;-74
2023/10/25 10:15:57;;;;;;;17.85;6.75;;;;;;;;;;5094413;28;20394;-74
2023/10/25 10:18:23;;;;;;;16.98;6.97;;;;;;;;;;5094032;28;20035;-73
2023/10/25 10:21:19;;;;;;;14.10;6.28;;;;;;;;;;5093904;28;20027;-74
2023/10/25 10:23:51;;;;;;;;;;;;;;;;;;5086210;28;20032;-74
2023/10/25 10:26:53;;;;;;;19.33;5.75;;;;;;;;;;5093054;28;19904;-73
2023/10/25 10:29:37;;;;;;;15.15;6.40;;;;;;;;;;5073457;28;20547;-74
2023/10/25 10:32:04;;;;;;;15.23;6.80;;;;;;;;;;5096543;28;20519;-74
2023/10/25 10:34:36;;;;;;;15.70;6.43;;;;;;;;;;5098968;28;20468;-73
2023/10/25 10:37:07;;;;;;;12.95;6.05;;;;;;;;;;5098979;28;20115;-76
2023/10/25 10:39:33;;;;;;;21.70;7.93;;;;;;;;;;5100157;28;20171;-74
2023/10/25 10:42:01;;;;;;;12.27;5.88;;;;;;;;;;5096376;28;20137;-74
2023/10/25 10:44:27;;;;;;;17.80;6.22;;;;;;;;;;5094432;28;20028;-74
2023/10/25 10:46:55;;;;;;;17.92;5.93;;;;;;;;;;5094174;28;20071;-75
2023/10/25 10:49:21;;;;;;;21.77;8.25;;;;;;;;;;5094362;28;20028;-74
2023/10/25 10:51:48;;;;;;;11.07;5.78;;;;;;;;;;5094734;28;20028;-77
2023/10/25 10:54:14;;;;;;;13.27;5.65;;;;;;;;;;5096218;28;20023;-74
2023/10/25 10:56:40;;;;;;;14.80;5.28;;;;;;;;;;5096242;28;20064;-75
2023/10/25 10:59:06;;;;;;;13.70;5.07;;;;;;;;;;5095776;28;20023;-75
2023/10/25 11:01:32;;;;;;;17.00;5.38;;;;;;;;;;5100131;28;20025;-75
2023/10/25 11:03:58;;;;;;;17.88;5.70;;;;;;;;;;5102847;28;20024;-73
2023/10/25 11:06:25;;;;;;;14.75;5.15;;;;;;;;;;5109384;28;20119;-73
2023/10/25 11:08:52;;;;;;;13.30;5.80;;;;;;;;;;5098069;28;20020;-74
2023/10/25 11:11:19;;;;;;;16.02;5.55;;;;;;;;;;5116410;28;20016;-73
2023/10/25 11:13:45;;;;;;;17.95;5.40;;;;;;;;;;5117069;28;20023;-75
2023/10/25 11:16:12;;;;;;;18.55;5.88;;;;;;;;;;5099067;28;20471;-76
2023/10/25 11:18:38;;;;;;;15.18;5.57;;;;;;;;;;5096475;28;20028;-74
2023/10/25 11:21:04;;;;;;;16.45;5.28;;;;;;;;;;5095278;28;20035;-75
2023/10/25 11:23:30;;;;;;;20.10;6.50;;;;;;;;;;5092534;28;20321;-74
2023/10/25 11:25:57;;;;;;;17.42;5.38;;;;;;;;;;5092812;28;20028;-74
2023/10/25 11:28:23;;;;;;;15.95;6.00;;;;;;;;;;5092954;28;20043;-75
2023/10/25 11:30:50;;;;;;;20.85;6.57;;;;;;;;;;5093032;28;20039;-74
2023/10/25 11:33:17;;;;;;;16.20;5.53;;;;;;;;;;5092517;28;20051;-74
2023/10/25 11:35:43;;;;;;;19.27;5.40;;;;;;;;;;5092242;28;20464;-73
2023/10/25 11:38:10;;;;;;;17.98;5.43;;;;;;;;;;5092267;28;20062;-75
2023/10/25 11:40:45;;;;;;;16.13;5.55;;;;;;;;;;5092445;28;20043;-75
2023/10/25 11:43:12;;;;;;;11.63;4.47;;;;;;;;;;5096658;28;20040;-73
2023/10/25 11:45:39;;;;;;;10.55;3.90;;;;;;;;;;5092905;28;20471;-73
2023/10/25 11:48:06;;;;;;;12.20;4.25;;;;;;;;;;5092208;28;20031;-74
2023/10/25 11:50:32;;;;;;;11.68;3.97;;;;;;;;;;5093386;28;20047;-75
2023/10/25 11:53:01;;;;;;;12.68;4.20;;;;;;;;;;5095484;28;20024;-74
2023/10/25 11:55:27;;;;;;;20.30;4.10;;;;;;;;;;5093541;28;20386;-73
2023/10/25 11:57:53;;;;;;;18.52;3.80;;;;;;;;;;5094382;28;20024;-74
2023/10/25 12:00:19;;;;;;;12.48;3.22;;;;;;;;;;5090588;28;20081;-74
2023/10/25 12:02:46;;;;;;;12.63;3.58;;;;;;;;;;5092014;28;20016;-74
2023/10/25 12:05:12;;;;;;;15.75;3.45;;;;;;;;;;5092057;28;20089;-73
2023/10/25 12:07:38;;;;;;;10.13;2.92;;;;;;;;;;5091984;28;20031;-73
2023/10/25 12:10:04;;;;;;;17.40;3.25;;;;;;;;;;5091488;28;20578;-76
2023/10/25 12:12:31;;;;;;;14.93;5.90;;;;;;;;;;5091252;28;20020;-74
2023/10/25 12:14:57;;;;;;;12.43;3.80;;;;;;;;;;5091982;28;20379;-75
2023/10/25 12:17:24;;;;;;;10.80;2.55;;;;;;;;;;5092209;28;20024;-75
2023/10/25 12:19:53;;;;;;;10.57;2.80;;;;;;;;;;5092043;28;20028;-73
2023/10/25 12:22:19;;;;;;;11.98;2.63;;;;;;;;;;5092141;28;20174;-73
2023/10/25 12:24:48;;;;;;;13.40;3.17;;;;;;;;;;5092844;28;20020;-74
2023/10/25 12:27:14;;;;;;;11.15;3.00;;;;;;;;;;5092614;28;20026;-72
2023/10/25 12:29:40;;;;;;;10.95;2.90;;;;;;;;;;5092915;28;20028;-74
2023/10/25 12:32:07;;;;;;;9.23;3.00;;;;;;;;;;5092627;28;20056;-73
2023/10/25 12:34:33;;;;;;;13.93;2.30;;;;;;;;;;5091915;28;20031;-73
2023/10/25 12:36:59;;;;;;;9.40;2.65;;;;;;;;;;5092598;28;20032;-73
2023/10/25 12:39:26;;;;;;;11.80;3.03;;;;;;;;;;5090834;28;20024;-74
2023/10/25 12:41:52;;;;;;;11.25;2.97;;;;;;;;;;5092216;28;20020;-73
2023/10/25 12:44:18;;;;;;;9.32;2.47;;;;;;;;;;5092983;28;20460;-75
2023/10/25 12:46:45;;;;;;;10.57;2.30;;;;;;;;;;5092736;28;20024;-73
2023/10/25 12:49:13;;;;;;;8.55;2.33;;;;;;;;;;5093099;28;20020;-74
2023/10/25 12:51:39;;;;;;;16.08;2.40;;;;;;;;;;5095317;28;20020;-73
2023/10/25 12:54:07;;;;;;;10.70;2.30;;;;;;;;;;5092032;28;20161;-78
2023/10/25 12:56:34;;;;;;;10.93;2.58;;;;;;;;;;5092495;28;20016;-75
2023/10/25 12:59:00;;;;;;;10.00;2.40;;;;;;;;;;5092215;28;20028;-74
2023/10/25 13:01:26;;;;;;;13.75;2.65;;;;;;;;;;5091767;28;20024;-74
2023/10/25 13:03:52;;;;;;;9.82;2.33;;;;;;;;;;5091409;28;20026;-74
2023/10/25 13:06:19;;;;;;;8.93;2.42;;;;;;;;;;5091354;28;20024;-74
2023/10/25 13:08:45;;;;;;;11.05;2.53;;;;;;;;;;5093496;28;20028;-76
2023/10/25 13:11:11;;;;;;;13.32;2.45;;;;;;;;;;5095882;28;20079;-73
2023/10/25 13:13:37;;;;;;;10.32;2.85;;;;;;;;;;5095306;28;20032;-73
2023/10/25 13:16:03;;;;;;;17.67;2.55;;;;;;;;;;5095595;28;20028;-75
2023/10/25 13:18:29;;;;;;;17.38;2.97;;;;;;;;;;5095348;28;20085;-74
2023/10/25 13:20:55;;;;;;;8.13;2.50;;;;;;;;;;5095122;28;20381;-74
2023/10/25 13:23:23;;;;;;;10.65;2.47;;;;;;;;;;5097741;28;20028;-74
2023/10/25 13:25:49;;;;;;;15.23;2.55;;;;;;;;;;5100002;28;20004;-74
2023/10/25 13:28:15;;;;;;;13.50;2.50;;;;;;;;;;5094985;28;20047;-73
2023/10/25 13:30:41;;;;;;;14.88;4.25;;;;;;;;;;5095055;28;20085;-74
2023/10/25 13:33:07;;;;;;;9.38;2.28;;;;;;;;;;5095176;28;20024;-74
2023/10/25 13:35:33;;;;;;;10.00;2.45;;;;;;;;;;5095053;28;20467;-75
2023/10/25 13:38:01;;;;;;;16.30;3.00;;;;;;;;;;5095179;28;20034;-75
2023/10/25 13:40:27;;;;;;;11.63;2.78;;;;;;;;;;5096596;28;20023;-74
2023/10/25 13:42:53;;;;;;;10.85;3.20;;;;;;;;;;5095842;28;20368;-76
2023/10/25 13:45:19;;;;;;;8.07;2.67;;;;;;;;;;5097548;28;20035;-73
2023/10/25 13:47:45;;;;;;;13.63;3.03;;;;;;;;;;5098862;28;20024;-73
2023/10/25 13:50:11;;;;;;;13.10;3.08;;;;;;;;;;5094463;28;20081;-77
2023/10/25 13:52:37;;;;;;;11.38;3.33;;;;;;;;;;5094758;28;20066;-74
2023/10/25 13:55:03;;;;;;;9.52;2.83;;;;;;;;;;5094496;28;20059;-74
2023/10/25 13:57:29;;;;;;;12.98;3.97;;;;;;;;;;5094960;28;20027;-74
2023/10/25 13:59:56;;;;;;;14.75;3.17;;;;;;;;;;5094638;28;20016;-75
2023/10/25 14:02:22;;;;;;;12.10;3.10;;;;;;;;;;5094844;28;20532;-74
2023/10/25 14:04:48;;;;;;;11.93;2.95;;;;;;;;;;5099172;28;20251;-73
2023/10/25 14:07:15;;;;;;;13.45;3.30;;;;;;;;;;5099128;28;20032;-74
2023/10/25 14:09:41;;;;;;;16.98;3.75;;;;;;;;;;5100961;28;20034;-76
2023/10/25 14:12:07;;;;;;;9.48;3.28;;;;;;;;;;5095281;28;20365;-74
2023/10/25 14:14:33;;;;;;;15.30;3.40;;;;;;;;;;5094219;28;20446;-74
2023/10/25 14:16:59;;;;;;;11.65;3.25;;;;;;;;;;5094501;28;20111;-73
2023/10/25 14:19:25;;;;;;;12.23;3.10;;;;;;;;;;5093685;28;20051;-73
2023/10/25 14:21:51;;;;;;;13.52;2.97;;;;;;;;;;5093608;28;20035;-74